Time;durP1;ratioP1;P1;durP2;ratioP2;P2;SDS_P1;SDS_P2;PMS_P1;PMS_P2;Temp;Humidity;BMP_temperature;BMP_pressure;BME280_temperature;BME280_humidity;BME280_pressure;Samples;Min_cycle;Max_cycle;Signal;HPM_P1;HPM_P2
2022/04/23 00:01:37;;;;;;;11.30;10.30;;;;;;;9.52;75.51;100753.50;5026176;28;20237;-53
2022/04/23 00:04:03;;;;;;;9.70;8.90;;;;;;;9.64;76.32;100751.78;5025485;28;20314;-55
2022/04/23 00:06:29;;;;;;;10.43;9.33;;;;;;;9.62;77.79;100748.28;5026187;28;20241;-53
2022/04/23 00:08:56;;;;;;;10.10;9.10;;;;;;;9.52;77.23;100744.78;5024898;28;20237;-54
2022/04/23 00:11:22;;;;;;;10.87;9.77;;;;;;;9.53;79.02;100751.75;5025505;28;20731;-54
2022/04/23 00:13:49;;;;;;;9.00;8.17;;;;;;;9.61;79.24;100750.03;5025214;28;20657;-54
2022/04/23 00:16:17;;;;;;;10.27;9.27;;;;;;;9.77;78.51;100750.97;5021436;28;20225;-53
2022/04/23 00:18:44;;;;;;;10.70;9.70;;;;;;;9.71;77.16;100743.94;5017039;28;20257;-54
2022/04/23 00:21:10;;;;;;;11.83;10.67;;;;;;;9.66;76.97;100748.31;5013213;28;20610;-53
2022/04/23 00:23:36;;;;;;;9.93;9.07;;;;;;;9.75;76.90;100750.06;5005630;28;20260;-54
2022/04/23 00:26:03;;;;;;;11.50;10.40;;;;;;;9.61;76.16;100746.53;5005756;28;20241;-54
2022/04/23 00:28:29;;;;;;;10.53;9.63;;;;;;;9.84;76.82;100747.47;5006688;28;20264;-53
2022/04/23 00:30:56;;;;;;;10.53;9.47;;;;;;;9.81;76.99;100744.84;5018795;28;20298;-54
2022/04/23 00:33:23;;;;;;;11.27;10.17;;;;;;;9.63;74.38;100744.81;5029048;28;20654;-54
2022/04/23 00:35:50;;;;;;;12.13;11.03;;;;;;;9.45;76.41;100746.50;5031657;28;20605;-54
2022/04/23 00:38:17;;;;;;;11.70;10.60;;;;;;;9.56;77.51;100751.78;5031354;28;20234;-54
2022/04/23 00:40:44;;;;;;;10.80;9.80;;;;;;;9.60;78.65;100750.91;5032085;28;20329;-53
2022/04/23 00:43:24;;;;;;;11.37;10.37;;;;;;;9.67;77.49;100746.56;5032034;28;20220;-53
2022/04/23 00:45:51;;;;;;;11.60;10.40;;;;;;;9.43;76.85;100740.34;5032060;28;20394;-53
2022/04/23 00:48:17;;;;;;;11.37;10.40;;;;;;;9.35;78.54;100749.06;5031024;28;20568;-54
2022/04/23 00:50:45;;;;;;;10.63;9.73;;;;;;;9.24;80.05;100746.41;5031637;28;20319;-53
2022/04/23 00:53:12;;;;;;;11.43;10.33;;;;;;;9.41;77.75;100754.34;5031358;28;20228;-53
2022/04/23 00:55:38;;;;;;;12.07;10.90;;;;;;;9.52;77.48;100753.50;5031526;28;20278;-53
2022/04/23 00:58:05;;;;;;;11.77;10.57;;;;;;;9.35;78.14;100755.19;5031732;28;20256;-54
2022/04/23 01:00:33;;;;;;;12.00;10.90;;;;;;;9.16;77.78;100755.94;5031735;28;20232;-53
2022/04/23 01:02:59;;;;;;;12.30;11.10;;;;;;;9.05;78.85;100754.16;5032162;28;20312;-53
2022/04/23 01:05:26;;;;;;;11.03;10.13;;;;;;;8.81;80.17;100751.41;5031550;28;20294;-54
2022/04/23 01:07:54;;;;;;;12.93;11.77;;;;;;;8.49;81.13;100754.66;5031238;28;20240;-54
2022/04/23 01:10:21;;;;;;;12.77;11.57;;;;;;;8.34;82.56;100758.00;5031182;28;20232;-54
2022/04/23 01:12:47;;;;;;;13.07;11.97;;;;;;;8.18;83.71;100755.22;5031800;28;20306;-54
2022/04/23 01:15:15;;;;;;;12.77;11.53;;;;;;;8.09;84.71;100754.28;5030464;28;20814;-54
2022/04/23 01:17:42;;;;;;;11.60;10.40;;;;;;;8.02;85.08;100756.84;5021902;28;20250;-54
2022/04/23 01:20:12;;;;;;;13.40;12.00;;;;;;;7.82;85.32;100759.25;5011137;28;20647;-53
2022/04/23 01:22:40;;;;;;;12.93;11.63;;;;;;;7.80;86.47;100755.75;5011584;28;20235;-53
2022/04/23 01:25:08;;;;;;;12.67;11.40;;;;;;;7.74;88.14;100755.69;5010476;28;20260;-54
2022/04/23 01:27:35;;;;;;;13.40;11.53;;;;;;;7.62;87.81;100757.31;5030768;28;20236;-53
2022/04/23 01:30:02;;;;;;;14.43;13.07;;;;;;;7.59;87.51;100759.88;5000801;28;20759;-53
2022/04/23 01:32:28;;;;;;;12.43;11.13;;;;;;;7.70;90.09;100752.16;5027249;28;20228;-54
2022/04/23 01:34:54;;;;;;;13.33;12.00;;;;;;;7.95;89.68;100749.78;5031493;28;20664;-53
2022/04/23 01:37:22;;;;;;;13.20;11.90;;;;;;;8.23;88.36;100746.56;5031872;28;20666;-53
2022/04/23 01:39:49;;;;;;;12.30;11.17;;;;;;;8.52;88.06;100748.56;5029423;28;20276;-53
2022/04/23 01:42:17;;;;;;;11.93;10.83;;;;;;;8.54;83.71;100752.97;5027465;28;20236;-54
2022/04/23 01:44:44;;;;;;;12.47;11.27;;;;;;;8.83;85.54;100744.44;5028485;28;20255;-54
2022/04/23 01:47:10;;;;;;;12.47;11.27;;;;;;;8.99;82.93;100745.41;5028011;28;20417;-53
2022/04/23 01:49:37;;;;;;;12.27;11.17;;;;;;;8.83;82.03;100747.06;5027454;28;20258;-53
2022/04/23 01:52:04;;;;;;;11.77;10.57;;;;;;;9.16;83.56;100737.63;5028505;28;20225;-53
2022/04/23 01:54:32;;;;;;;11.37;10.27;;;;;;;8.91;80.18;100744.47;5028686;28;20260;-52
2022/04/23 01:56:58;;;;;;;13.27;12.07;;;;;;;9.07;81.55;100744.56;5016309;28;20313;-54
2022/04/23 01:59:25;;;;;;;12.43;11.33;;;;;;;9.22;79.91;100742.91;5014728;28;20651;-53
2022/04/23 02:01:51;;;;;;;12.17;11.07;;;;;;;9.18;79.15;100749.00;5027653;28;20299;-54
2022/04/23 02:04:18;;;;;;;13.53;12.23;;;;;;;9.13;78.46;100745.50;5027226;28;20268;-54
2022/04/23 02:06:45;;;;;;;11.53;10.50;;;;;;;8.75;80.03;100739.16;5027787;28;20678;-54
2022/04/23 02:09:11;;;;;;;12.23;11.03;;;;;;;8.98;81.87;100744.50;5027168;28;20283;-54
2022/04/23 02:11:39;;;;;;;14.97;12.30;;;;;;;8.74;79.32;100757.44;5021569;28;20245;-53
2022/04/23 02:14:06;;;;;;;12.97;11.77;;;;;;;8.66;78.29;100752.16;5023622;28;20238;-53
2022/04/23 02:16:33;;;;;;;14.60;11.47;;;;;;;8.94;80.72;100742.75;5027808;28;20236;-54
2022/04/23 02:19:01;;;;;;;12.63;11.47;;;;;;;9.05;79.45;100746.28;5022926;28;20229;-53
2022/04/23 02:21:27;;;;;;;12.93;11.03;;;;;;;8.89;76.46;100749.72;5027614;28;20235;-52
2022/04/23 02:23:54;;;;;;;13.20;11.90;;;;;;;8.86;77.54;100751.44;5023489;28;20286;-53
2022/04/23 02:26:21;;;;;;;13.30;12.10;;;;;;;8.94;78.06;100758.47;5025221;28;20746;-53
2022/04/23 02:28:48;;;;;;;13.27;11.97;;;;;;;8.78;76.18;100746.16;5025571;28;20259;-53
2022/04/23 02:31:15;;;;;;;11.93;10.77;;;;;;;8.75;76.19;100759.22;5026862;28;20291;-53
2022/04/23 02:33:41;;;;;;;13.80;12.50;;;;;;;8.89;76.51;100754.94;5026356;28;20753;-53
2022/04/23 02:36:08;;;;;;;11.57;10.47;;;;;;;8.87;78.17;100751.44;5026536;28;20241;-53
2022/04/23 02:38:35;;;;;;;11.90;10.90;;;;;;;8.74;77.99;100754.84;5026385;28;20290;-53
2022/04/23 02:41:02;;;;;;;12.77;11.47;;;;;;;8.91;77.00;100745.34;5027218;28;20298;-56
2022/04/23 02:43:28;;;;;;;12.50;10.20;;;;;;;8.90;77.54;100751.47;5027062;28;20756;-53
2022/04/23 02:45:56;;;;;;;12.30;11.10;;;;;;;8.87;78.39;100755.81;5026852;28;20726;-53
2022/04/23 02:48:22;;;;;;;12.40;11.20;;;;;;;8.75;75.74;100757.47;5026588;28;20236;-54
2022/04/23 02:50:49;;;;;;;12.00;10.77;;;;;;;8.78;78.70;100751.41;5027232;28;20298;-53
2022/04/23 02:53:16;;;;;;;11.87;10.87;;;;;;;9.02;78.85;100762.03;5026983;28;20228;-54
2022/04/23 02:55:42;;;;;;;11.60;10.50;;;;;;;8.95;78.09;100751.47;5026756;28;20348;-54
2022/04/23 02:58:11;;;;;;;12.33;11.13;;;;;;;8.82;75.45;100769.75;5026823;28;20260;-54
2022/04/23 03:00:39;;;;;;;12.93;11.73;;;;;;;8.43;75.24;100764.22;5026629;28;20236;-52
2022/04/23 03:03:07;;;;;;;11.47;10.37;;;;;;;8.46;78.05;100765.13;5026994;28;20239;-54
2022/04/23 03:05:33;;;;;;;12.20;11.00;;;;;;;8.35;76.67;100762.38;5027308;28;20524;-54
2022/04/23 03:08:00;;;;;;;11.87;10.70;;;;;;;8.53;76.65;100758.16;5005911;28;20257;-54
2022/04/23 03:10:27;;;;;;;11.70;10.60;;;;;;;8.75;78.09;100762.72;5005192;28;20237;-54
2022/04/23 03:12:57;;;;;;;11.40;10.40;;;;;;;8.73;78.15;100761.81;5006854;28;22592;-52
2022/04/23 03:15:24;;;;;;;11.67;10.67;;;;;;;8.51;76.98;100763.41;5006797;28;20802;-54
2022/04/23 03:17:51;;;;;;;12.73;11.67;;;;;;;8.74;78.56;100765.31;5007026;28;20237;-53
2022/04/23 03:20:21;;;;;;;14.10;10.97;;;;;;;8.47;76.34;100768.59;5005777;28;20225;-53
2022/04/23 03:22:47;;;;;;;13.23;11.33;;;;;;;8.73;78.04;100761.81;5006494;28;20247;-53
2022/04/23 03:25:14;;;;;;;11.60;10.60;;;;;;;8.39;77.00;100763.31;5006437;28;20249;-53
2022/04/23 03:27:40;;;;;;;13.97;11.07;;;;;;;8.12;77.11;100762.16;4999505;28;20242;-54
2022/04/23 03:30:08;;;;;;;13.43;12.23;;;;;;;7.70;78.22;100760.00;5006136;28;20264;-53
2022/04/23 03:32:34;;;;;;;13.93;11.37;;;;;;;7.83;80.57;100771.47;5006711;28;20319;-53
2022/04/23 03:35:01;;;;;;;12.97;11.67;;;;;;;7.97;80.15;100764.66;5007057;28;20237;-53
2022/04/23 03:37:29;;;;;;;11.83;10.83;;;;;;;7.99;79.42;100760.28;5006543;28;20249;-53
2022/04/23 03:39:55;;;;;;;13.50;12.20;;;;;;;8.03;80.37;100762.06;5005703;28;20291;-53
2022/04/23 03:42:22;;;;;;;11.60;10.37;;;;;;;8.40;81.25;100765.06;5003683;28;20285;-53
2022/04/23 03:44:48;;;;;;;12.63;11.23;;;;;;;8.62;79.37;100767.84;5001802;28;20240;-53
2022/04/23 03:47:15;;;;;;;15.10;11.93;;;;;;;8.48;79.36;100773.84;5006210;28;20281;-53
2022/04/23 03:49:42;;;;;;;11.57;10.47;;;;;;;8.39;78.35;100767.66;5005134;28;20241;-53
2022/04/23 03:52:10;;;;;;;13.27;11.93;;;;;;;8.22;76.37;100780.56;5005412;28;20693;-52
2022/04/23 03:54:37;;;;;;;13.27;11.87;;;;;;;8.45;79.61;100768.59;5006419;28;20237;-53
2022/04/23 03:57:04;;;;;;;12.67;11.37;;;;;;;8.33;76.13;100773.69;5005954;28;20616;-54
2022/04/23 03:59:30;;;;;;;12.57;11.27;;;;;;;8.30;80.29;100778.91;4991434;28;20284;-53
2022/04/23 04:02:02;;;;;;;12.03;10.93;;;;;;;7.97;77.34;100775.09;5002194;28;20237;-53
2022/04/23 04:04:29;;;;;;;12.97;11.77;;;;;;;8.04;79.26;100770.81;5025073;28;20274;-54
2022/04/23 04:06:55;;;;;;;14.33;12.73;;;;;;;7.69;79.00;100783.47;5014769;28;20272;-52
2022/04/23 04:09:21;;;;;;;13.80;12.53;;;;;;;7.91;79.37;100780.25;5005160;28;20781;-53
2022/04/23 04:12:06;;;;;;;15.23;13.30;;;;;;;8.16;78.45;100785.72;5006311;28;20708;-53
2022/04/23 04:14:34;;;;;;;12.60;11.40;;;;;;;8.36;79.49;100786.81;5024363;28;20705;-53
2022/04/23 04:17:03;;;;;;;13.43;12.20;;;;;;;8.51;78.38;100780.84;5025417;28;20228;-53
2022/04/23 04:19:32;;;;;;;13.27;12.07;;;;;;;8.42;75.59;100791.22;5005750;28;20680;-53
2022/04/23 04:21:58;;;;;;;12.93;11.70;;;;;;;8.37;78.79;100785.94;5013715;28;20229;-53
2022/04/23 04:24:26;;;;;;;14.67;13.10;;;;;;;8.25;77.16;100785.81;5026011;28;20706;-53
2022/04/23 04:26:54;;;;;;;13.80;12.27;;;;;;;7.98;78.33;100786.44;5025694;28;20302;-53
2022/04/23 04:29:20;;;;;;;14.77;12.70;;;;;;;7.84;79.53;100783.66;5024359;28;20314;-54
2022/04/23 04:31:50;;;;;;;13.87;12.47;;;;;;;7.55;81.41;100792.06;5026060;28;20601;-54
2022/04/23 04:34:18;;;;;;;17.20;13.43;;;;;;;7.51;82.35;100782.44;5025561;28;20232;-53
2022/04/23 04:36:45;;;;;;;16.43;14.03;;;;;;;7.37;83.17;100783.97;5025613;28;20264;-53
2022/04/23 04:39:11;;;;;;;12.70;11.50;;;;;;;7.59;84.04;100788.63;5024900;28;20236;-54
2022/04/23 04:41:38;;;;;;;14.33;12.83;;;;;;;7.77;83.41;100785.34;5025193;28;20290;-54
2022/04/23 04:44:06;;;;;;;16.57;14.03;;;;;;;7.87;81.41;100789.81;5024963;28;20766;-54
2022/04/23 04:46:32;;;;;;;14.47;12.97;;;;;;;7.58;80.85;100796.41;5025140;28;20240;-54
2022/04/23 04:48:59;;;;;;;13.43;12.20;;;;;;;8.00;79.79;100790.81;5024350;28;20240;-54
2022/04/23 04:51:25;;;;;;;14.87;13.27;;;;;;;8.20;81.56;100788.38;5025434;28;20548;-54
2022/04/23 04:53:53;;;;;;;14.63;13.33;;;;;;;7.98;76.88;100787.31;5025139;28;20290;-54
2022/04/23 04:56:19;;;;;;;13.33;12.07;;;;;;;8.16;79.76;100793.56;5025334;28;20758;-53
2022/04/23 04:58:46;;;;;;;13.40;12.17;;;;;;;8.19;80.42;100797.09;5024383;28;20611;-53
2022/04/23 05:01:14;;;;;;;13.00;11.70;;;;;;;8.20;78.84;100787.50;5023607;28;20788;-53
2022/04/23 05:03:40;;;;;;;14.23;12.90;;;;;;;8.30;80.16;100799.81;5020739;28;20785;-53
2022/04/23 05:06:07;;;;;;;13.57;12.27;;;;;;;8.26;77.44;100798.03;5024127;28;20243;-53
2022/04/23 05:08:34;;;;;;;13.80;12.50;;;;;;;8.56;76.38;100787.88;5024113;28;20236;-54
2022/04/23 05:11:01;;;;;;;12.53;11.33;;;;;;;8.56;77.88;100798.34;5024832;28;20231;-53
2022/04/23 05:13:27;;;;;;;12.57;11.27;;;;;;;8.25;75.46;100798.88;5024428;28;20784;-53
2022/04/23 05:15:54;;;;;;;12.73;11.33;;;;;;;8.25;77.36;100799.78;5026678;28;20333;-53
2022/04/23 05:18:21;;;;;;;12.80;11.60;;;;;;;8.26;76.17;100798.03;5027216;28;20237;-53
2022/04/23 05:20:48;;;;;;;12.07;10.97;;;;;;;8.12;77.01;100801.41;5028232;28;20236;-52
2022/04/23 05:23:14;;;;;;;12.57;11.47;;;;;;;8.15;77.11;100797.94;5028692;28;20232;-54
2022/04/23 05:25:41;;;;;;;13.33;12.03;;;;;;;8.20;79.13;100811.06;5027775;28;20244;-54
2022/04/23 05:28:07;;;;;;;12.37;11.27;;;;;;;8.31;76.85;100807.66;5028224;28;20334;-54
2022/04/23 05:30:37;;;;;;;14.97;11.93;;;;;;;8.48;78.42;100810.47;5028452;28;20299;-54
2022/04/23 05:33:03;;;;;;;13.40;12.00;;;;;;;8.67;75.12;100810.63;5028698;28;20228;-53
2022/04/23 05:35:31;;;;;;;12.83;11.63;;;;;;;8.60;77.52;100807.97;5028235;28;20260;-53
2022/04/23 05:37:57;;;;;;;12.90;11.67;;;;;;;8.47;74.35;100808.72;5027738;28;20225;-54
2022/04/23 05:40:24;;;;;;;14.97;11.40;;;;;;;8.51;76.25;100809.63;5026501;28;20713;-54
2022/04/23 05:42:50;;;;;;;11.70;10.43;;;;;;;8.49;77.60;100806.09;5028184;28;20306;-53
2022/04/23 05:45:17;;;;;;;13.43;11.87;;;;;;;8.76;77.34;100810.69;5028009;28;20253;-53
2022/04/23 05:47:43;;;;;;;12.43;11.13;;;;;;;8.76;76.37;100802.84;5028790;28;20252;-53
2022/04/23 05:50:10;;;;;;;12.70;11.40;;;;;;;8.64;74.01;100806.25;5027242;28;20310;-53
2022/04/23 05:52:38;;;;;;;13.97;12.17;;;;;;;8.57;74.57;100804.47;5027566;28;20239;-54
2022/04/23 05:55:06;;;;;;;13.67;12.30;;;;;;;8.54;75.27;100807.91;5027516;28;20236;-54
2022/04/23 05:57:32;;;;;;;11.60;10.40;;;;;;;8.89;77.53;100812.56;5027022;28;20236;-54
2022/04/23 05:59:58;;;;;;;11.83;10.73;;;;;;;8.81;75.35;100803.78;5019242;28;20659;-54
2022/04/23 06:02:25;;;;;;;11.77;10.67;;;;;;;8.96;77.14;100806.50;5026296;28;20737;-53
2022/04/23 06:04:52;;;;;;;13.80;11.67;;;;;;;8.83;74.06;100804.66;5027335;28;20237;-53
2022/04/23 06:07:18;;;;;;;11.70;10.60;;;;;;;8.88;76.27;100805.56;5027468;28;20279;-53
2022/04/23 06:09:46;;;;;;;12.93;11.47;;;;;;;8.87;74.43;100800.31;5020685;28;20269;-54
2022/04/23 06:12:13;;;;;;;11.27;10.17;;;;;;;9.05;76.48;100809.16;5008019;28;20279;-54
2022/04/23 06:14:39;;;;;;;11.60;9.87;;;;;;;9.25;74.36;100800.53;5023587;28;20343;-54
2022/04/23 06:17:07;;;;;;;10.57;9.57;;;;;;;9.33;73.83;100802.31;5020517;28;20644;-53
2022/04/23 06:19:33;;;;;;;11.50;10.33;;;;;;;9.39;72.84;100803.25;5027656;28;20244;-54
2022/04/23 06:22:00;;;;;;;12.10;10.87;;;;;;;9.41;72.69;100802.38;5027374;28;20263;-54
2022/04/23 06:24:26;;;;;;;11.50;10.30;;;;;;;9.53;73.02;100797.19;5027375;28;20228;-53
2022/04/23 06:26:54;;;;;;;10.67;9.57;;;;;;;9.58;72.01;100799.81;5025835;28;20248;-52
2022/04/23 06:29:20;;;;;;;12.57;11.40;;;;;;;9.56;70.54;100807.69;5026228;28;20260;-53
2022/04/23 06:31:47;;;;;;;12.07;10.97;;;;;;;9.64;69.36;100805.09;5027733;28;20387;-53
2022/04/23 06:34:13;;;;;;;12.63;10.40;;;;;;;9.67;69.52;100806.84;5026994;28;20612;-53
2022/04/23 06:36:40;;;;;;;10.47;9.40;;;;;;;9.86;69.05;100800.78;5026694;28;20247;-54
2022/04/23 06:39:06;;;;;;;10.77;9.67;;;;;;;9.91;69.33;100804.31;5026306;28;20476;-54
2022/04/23 06:41:32;;;;;;;10.03;9.10;;;;;;;10.00;70.14;100809.59;5026923;28;20295;-54
2022/04/23 06:44:00;;;;;;;10.20;8.97;;;;;;;10.21;70.45;100805.25;5026817;28;20528;-53
2022/04/23 06:46:27;;;;;;;10.93;9.93;;;;;;;10.14;67.89;100806.09;5026126;28;20236;-54
2022/04/23 06:48:53;;;;;;;12.07;8.97;;;;;;;10.20;67.41;100808.75;5025349;28;20318;-54
2022/04/23 06:51:20;;;;;;;11.07;9.67;;;;;;;10.17;67.53;100811.38;5025698;28;20275;-55
2022/04/23 06:53:46;;;;;;;10.37;8.57;;;;;;;10.27;68.90;100813.16;5023728;28;20260;-52
2022/04/23 06:56:13;;;;;;;10.53;9.53;;;;;;;10.30;66.59;100807.94;4986956;28;20724;-54
2022/04/23 06:58:39;;;;;;;10.13;8.20;;;;;;;10.50;68.07;100811.44;5005350;28;20240;-53
2022/04/23 07:01:07;;;;;;;9.47;8.57;;;;;;;10.53;65.13;100805.34;5007012;28;20256;-52
2022/04/23 07:03:33;;;;;;;9.00;8.23;;;;;;;10.57;66.05;100801.84;5007252;28;20226;-54
2022/04/23 07:06:00;;;;;;;9.27;8.30;;;;;;;10.66;63.64;100806.19;5021686;28;20706;-57
2022/04/23 07:08:26;;;;;;;9.90;8.97;;;;;;;10.57;63.15;100804.47;5025198;28;20503;-54
2022/04/23 07:10:52;;;;;;;9.43;8.53;;;;;;;10.69;63.98;100811.44;5025704;28;20279;-54
2022/04/23 07:13:19;;;;;;;9.17;7.93;;;;;;;10.82;64.95;100805.31;5025035;28;20592;-53
2022/04/23 07:15:46;;;;;;;9.63;8.73;;;;;;;10.85;62.24;100807.94;5024891;28;20232;-53
2022/04/23 07:18:14;;;;;;;9.67;8.27;;;;;;;10.90;63.13;100808.81;5025281;28;20745;-53
2022/04/23 07:20:40;;;;;;;9.20;8.30;;;;;;;11.06;63.22;100801.78;5024778;28;20237;-53
2022/04/23 07:25:59;;;;;;;12.53;8.70;;;;;;;11.12;62.00;100801.75;4979600;28;20232;-54
2022/04/23 07:28:25;;;;;;;8.93;8.13;;;;;;;11.21;61.32;100800.88;5025418;28;20244;-54
2022/04/23 07:30:52;;;;;;;8.60;7.80;;;;;;;11.30;60.17;100799.94;5025895;28;20241;-54
2022/04/23 07:38:44;;;;;;;7.93;7.13;;;;;;;11.52;59.14;100795.53;5044742;28;20255;-54
2022/04/23 07:41:11;;;;;;;7.83;7.13;;;;;;;11.63;57.85;100805.09;5015089;28;20700;-54
2022/04/23 07:43:38;;;;;;;9.02;7.32;;;;;;;11.68;59.38;100800.69;5010710;28;20582;-54
2022/04/23 07:46:04;;;;;;;8.03;7.23;;;;;;;11.88;59.15;100805.03;5026411;28;20244;-53
2022/04/23 07:48:33;;;;;;;9.70;7.90;;;;;;;11.83;59.13;100799.75;5024687;28;20267;-54
2022/04/23 07:51:00;;;;;;;8.57;7.77;;;;;;;11.92;58.60;100802.34;5022387;28;20249;-54
2022/04/23 07:53:26;;;;;;;11.90;8.83;;;;;;;11.78;58.05;100800.66;5006388;28;20241;-52
2022/04/23 07:55:52;;;;;;;8.73;7.93;;;;;;;11.87;58.58;100796.25;5004922;28;20744;-54
2022/04/23 07:58:19;;;;;;;8.67;7.87;;;;;;;12.01;58.10;100798.81;5017819;28;20356;-53
2022/04/23 08:00:45;;;;;;;7.80;7.10;;;;;;;12.09;57.20;100798.75;5024128;28;20313;-52
2022/04/23 08:03:12;;;;;;;10.38;7.82;;;;;;;12.11;58.07;100787.34;5025096;28;20236;-53
2022/04/23 08:05:40;;;;;;;9.45;8.55;;;;;;;12.38;58.01;100794.16;5025652;28;20237;-54
2022/04/23 08:08:07;;;;;;;9.35;8.27;;;;;;;12.38;58.53;100781.00;5025767;28;20256;-57
2022/04/23 08:10:34;;;;;;;8.32;7.55;;;;;;;12.45;57.12;100789.72;5025211;28;21816;-54
2022/04/23 08:13:00;;;;;;;8.15;7.38;;;;;;;12.53;55.36;100789.66;5025170;28;20297;-53
2022/04/23 08:15:27;;;;;;;8.10;7.40;;;;;;;12.46;57.82;100795.88;5024422;28;20609;-54
2022/04/23 08:17:53;;;;;;;7.85;7.15;;;;;;;12.60;57.00;100786.09;5024979;28;20239;-53
2022/04/23 08:20:20;;;;;;;7.97;7.25;;;;;;;12.66;57.77;100792.19;5024763;28;20260;-54
2022/04/23 08:22:47;;;;;;;9.45;7.50;;;;;;;12.72;56.23;100780.72;5025634;28;20232;-54
2022/04/23 08:25:14;;;;;;;8.90;8.10;;;;;;;12.92;55.53;100782.28;5025439;28;20942;-54
2022/04/23 08:27:47;;;;;;;8.40;7.22;;;;;;;13.09;56.51;100777.72;5025998;28;20734;-53
2022/04/23 08:32:58;;;;;;;8.88;7.97;;;;;;;13.08;54.89;100768.06;5026080;28;20267;-54
2022/04/23 08:35:24;;;;;;;9.50;8.60;;;;;;;13.29;55.64;100767.84;5025575;28;20599;-54
2022/04/23 08:37:52;;;;;;;9.30;8.40;;;;;;;13.59;52.90;100769.25;5025398;28;20236;-52
2022/04/23 08:40:19;;;;;;;8.38;7.57;;;;;;;13.85;53.47;100763.63;5024493;28;20252;-53
2022/04/23 08:42:46;;;;;;;8.32;7.50;;;;;;;14.16;53.42;100763.19;5025533;28;20583;-54
2022/04/23 08:45:13;;;;;;;9.30;8.50;;;;;;;14.44;52.01;100760.09;5023431;28;20236;-54
2022/04/23 08:47:44;;;;;;;8.60;7.80;;;;;;;14.58;50.98;100766.06;5024664;28;20250;-53
2022/04/23 08:50:11;;;;;;;8.40;7.60;;;;;;;14.60;50.64;100764.28;5025369;28;20278;-53
2022/04/23 08:52:37;;;;;;;8.68;7.88;;;;;;;14.17;50.23;100749.06;5028937;28;20232;-53
2022/04/23 08:55:06;;;;;;;7.97;7.22;;;;;;;14.08;52.23;100752.75;5029392;28;20648;-54
2022/04/23 08:57:33;;;;;;;8.20;7.50;;;;;;;14.32;51.45;100743.56;5027077;28;20238;-54
2022/04/23 09:00:01;;;;;;;8.30;7.50;;;;;;;14.37;50.23;100746.13;5011499;28;20237;-54
2022/04/23 09:02:33;;;;;;;8.27;7.47;;;;;;;14.20;50.84;100741.09;5011623;28;20317;-53
2022/04/23 09:04:59;;;;;;;7.72;7.00;;;;;;;14.21;50.86;100732.28;5029005;28;20236;-53
2022/04/23 09:07:26;;;;;;;7.95;7.25;;;;;;;14.19;49.76;100735.88;5029133;28;20381;-54
2022/04/23 09:09:54;;;;;;;8.13;7.43;;;;;;;14.46;49.98;100742.44;5027967;28;20588;-54
2022/04/23 09:12:25;;;;;;;7.85;7.10;;;;;;;14.30;49.80;100737.44;5008924;28;20295;-55
2022/04/23 09:14:52;;;;;;;6.97;6.38;;;;;;;14.35;49.64;100733.84;5017529;28;20784;-54
2022/04/23 09:25:47;;;;;;;5.53;5.13;;;;;;;14.45;46.62;100725.72;5014719;28;20294;-53
2022/04/23 09:28:18;;;;;;;5.55;5.10;;;;;;;14.41;47.28;100725.81;5028381;28;20236;-54
2022/04/23 09:30:45;;;;;;;7.00;6.30;;;;;;;14.59;46.10;100709.66;5028958;28;20244;-54
2022/04/23 09:33:12;;;;;;;6.65;6.07;;;;;;;14.87;46.86;100714.44;5029635;28;20229;-53
2022/04/23 09:35:52;;;;;;;5.65;5.15;;;;;;;15.13;46.04;100706.91;5028725;28;20236;-54
2022/04/23 09:38:18;;;;;;;6.80;6.20;;;;;;;15.52;45.30;100704.31;5028664;28;20330;-54
2022/04/23 09:40:50;;;;;;;6.47;4.85;;;;;;;15.62;44.41;100705.84;5028244;28;20236;-53
2022/04/23 09:43:24;;;;;;;5.47;5.07;;;;;;;15.62;42.79;100700.56;5028122;28;20236;-55
2022/04/23 09:46:00;;;;;;;6.25;5.75;;;;;;;15.83;42.58;100695.69;5010666;28;20330;-53
2022/04/23 09:48:26;;;;;;;7.43;5.57;;;;;;;15.95;43.24;100695.41;5014570;28;20817;-53
2022/04/23 09:50:52;;;;;;;6.03;5.50;;;;;;;15.65;43.01;100697.81;5028647;28;20287;-54
2022/04/23 09:53:20;;;;;;;5.13;4.72;;;;;;;15.80;43.56;100698.44;5026409;28;20306;-53
2022/04/23 09:55:48;;;;;;;6.30;5.55;;;;;;;16.15;41.23;100693.16;5025937;28;20265;-54
2022/04/23 09:58:16;;;;;;;10.57;5.03;;;;;;;15.65;41.80;100683.72;5010620;28;20237;-53
2022/04/23 10:00:46;;;;;;;5.68;5.13;;;;;;;15.44;41.50;100693.91;5012942;28;20346;-54
2022/04/23 10:03:13;;;;;;;6.22;5.68;;;;;;;15.17;41.40;100687.41;5027513;28;20303;-54
2022/04/23 10:05:41;;;;;;;6.18;5.13;;;;;;;14.74;45.16;100693.56;5027582;28;20320;-52
2022/04/23 10:08:12;;;;;;;5.90;5.30;;;;;;;14.89;45.57;100688.88;5027594;28;20232;-54
2022/04/23 10:10:44;;;;;;;6.15;5.65;;;;;;;14.92;46.80;100688.81;5027670;28;20243;-54
2022/04/23 10:13:12;;;;;;;5.20;4.70;;;;;;;14.67;45.97;100676.06;5027781;28;20252;-54
2022/04/23 10:15:40;;;;;;;5.97;5.47;;;;;;;14.55;45.96;100687.72;5025938;28;20751;-54
2022/04/23 10:18:09;;;;;;;6.22;5.72;;;;;;;14.68;47.43;100687.50;5018320;28;20256;-52
2022/04/23 10:20:37;;;;;;;6.97;6.38;;;;;;;14.67;44.42;100686.63;5023596;28;20294;-53
2022/04/23 10:23:11;;;;;;;6.10;5.60;;;;;;;14.87;45.68;100682.72;5027727;28;20711;-54
2022/04/23 10:25:46;;;;;;;6.28;5.68;;;;;;;15.10;45.32;100680.50;5027526;28;20232;-56
2022/04/23 10:28:12;;;;;;;5.40;4.80;;;;;;;15.52;45.23;100683.16;5028653;28;20730;-53
2022/04/23 10:30:39;;;;;;;7.20;6.38;;;;;;;15.72;42.40;100674.75;5028986;28;20240;-54
2022/04/23 10:33:26;;;;;;;6.38;5.88;;;;;;;15.47;41.26;100690.28;5028168;28;20270;-53
2022/04/23 10:36:06;;;;;;;6.05;5.53;;;;;;;15.50;41.80;100679.66;5021779;28;20315;-53
2022/04/23 10:38:32;;;;;;;5.93;5.43;;;;;;;15.73;42.69;100677.38;5023399;28;20813;-54
2022/04/23 10:40:58;;;;;;;8.85;6.47;;;;;;;16.08;43.19;100673.03;5026703;28;20726;-54
2022/04/23 10:43:26;;;;;;;4.93;4.53;;;;;;;15.98;41.91;100660.91;5027460;28;20236;-53
2022/04/23 10:45:52;;;;;;;5.80;5.30;;;;;;;15.64;42.39;100669.63;5028126;28;20244;-53
2022/04/23 10:48:33;;;;;;;6.32;5.72;;;;;;;15.41;42.52;100669.25;5027973;28;20259;-53
2022/04/23 10:51:02;;;;;;;6.90;5.82;;;;;;;15.32;43.75;100665.03;5027086;28;20268;-54
2022/04/23 10:53:30;;;;;;;5.60;5.10;;;;;;;15.55;43.10;100661.91;5028336;28;20708;-54
2022/04/23 10:56:06;;;;;;;5.82;5.32;;;;;;;15.85;41.55;100667.41;5027651;28;20241;-54
2022/04/23 10:58:32;;;;;;;5.10;4.70;;;;;;;15.97;41.35;100660.06;5026571;28;20228;-54
2022/04/23 11:01:18;;;;;;;5.63;5.22;;;;;;;16.21;40.75;100652.38;5027705;28;20235;-54
2022/04/23 11:03:50;;;;;;;5.57;5.07;;;;;;;16.46;40.41;100653.50;5031768;28;20290;-54
2022/04/23 11:12:19;;;;;;;5.43;4.93;;;;;;;16.49;38.64;100651.66;5027376;28;20255;-55
2022/04/23 11:14:47;;;;;;;5.22;4.82;;;;;;;16.20;40.27;100638.28;5027985;28;20236;-53
2022/04/23 11:17:14;;;;;;;5.78;5.28;;;;;;;16.56;38.31;100638.19;5029151;28;20236;-53
2022/04/23 11:19:41;;;;;;;5.53;5.03;;;;;;;16.88;37.75;100632.06;5027305;28;20650;-54
2022/04/23 11:22:09;;;;;;;6.05;4.88;;;;;;;16.69;38.71;100634.31;5030802;28;20255;-54
2022/04/23 11:24:35;;;;;;;5.55;5.15;;;;;;;16.93;38.84;100632.78;5029802;28;20228;-53
2022/04/23 11:27:03;;;;;;;5.57;5.18;;;;;;;16.82;38.80;100634.00;5029647;28;20325;-55
2022/04/23 11:29:29;;;;;;;5.38;4.95;;;;;;;17.02;39.14;100636.06;5028017;28;20764;-54
2022/04/23 11:31:56;;;;;;;5.85;5.45;;;;;;;16.93;38.14;100634.56;5030321;28;20282;-54
2022/04/23 11:34:23;;;;;;;6.97;5.40;;;;;;;16.80;40.24;100626.09;5032590;28;20228;-54
2022/04/23 11:36:51;;;;;;;5.57;4.53;;;;;;;16.22;40.40;100623.22;5014102;28;20241;-54
2022/04/23 11:39:18;;;;;;;5.30;4.82;;;;;;;15.71;42.75;100620.09;5008166;28;20336;-54
2022/04/23 11:41:49;;;;;;;7.75;5.30;;;;;;;16.31;39.84;100619.44;5009460;28;20767;-58
2022/04/23 11:44:16;;;;;;;7.07;6.43;;;;;;;16.97;40.43;100615.00;5007897;28;20766;-54
2022/04/23 11:46:44;;;;;;;4.45;4.15;;;;;;;16.76;38.82;100608.53;5021902;28;20298;-53
2022/04/23 11:49:10;;;;;;;4.60;3.92;;;;;;;17.01;38.48;100607.81;5026422;28;20233;-54